Time;durP1;ratioP1;P1;durP2;ratioP2;P2;SDS_P1;SDS_P2;PMS_P1;PMS_P2;Temp;Humidity;BMP_temperature;BMP_pressure;BME280_temperature;BME280_humidity;BME280_pressure;Samples;Min_cycle;Max_cycle;Signal;HPM_P1;HPM_P2
2022/05/07 00:01:38;;;;;;;7.20;4.10;;;;;;;14.35;55.14;101850.00;4970513;28;20034;-87
2022/05/07 00:04:03;;;;;;;7.85;4.15;;;;;;;14.38;55.38;101851.63;4970357;28;20035;-87
2022/05/07 00:06:29;;;;;;;7.45;3.97;;;;;;;14.34;54.85;101834.44;4970869;28;20026;-87
2022/05/07 00:08:54;;;;;;;6.28;4.10;;;;;;;14.27;55.18;101820.03;4986455;28;20454;-87
2022/05/07 00:11:22;;;;;;;6.38;4.00;;;;;;;14.29;55.11;101844.22;4970397;28;20472;-87
2022/05/07 00:13:48;;;;;;;6.85;3.88;;;;;;;14.14;55.25;101806.72;4970703;28;20488;-87
2022/05/07 00:18:58;;;;;;;9.98;4.45;;;;;;;14.24;55.51;101840.97;4970648;28;20114;-87
2022/05/07 00:21:23;;;;;;;7.68;4.45;;;;;;;14.20;55.64;101847.25;4972993;28;20032;-87
2022/05/07 00:23:49;;;;;;;6.72;4.50;;;;;;;14.13;55.63;101845.81;4974080;28;20566;-87
2022/05/07 00:26:14;;;;;;;6.80;4.50;;;;;;;14.08;56.24;101835.63;4974142;28;20027;-87
2022/05/07 00:28:40;;;;;;;8.77;5.13;;;;;;;14.07;56.02;101831.34;4974331;28;20045;-87
2022/05/07 00:31:05;;;;;;;11.18;7.22;;;;;;;13.90;55.85;101815.63;4973640;28;20511;-87
2022/05/07 00:33:31;;;;;;;12.13;8.85;;;;;;;13.90;56.20;101829.47;4973567;28;20031;-87
2022/05/07 00:35:56;;;;;;;11.30;8.27;;;;;;;13.88;55.97;101830.47;4989837;28;20504;-87
2022/05/07 00:38:22;;;;;;;13.90;7.82;;;;;;;13.83;55.95;101830.63;4973835;28;20030;-87
2022/05/07 00:40:47;;;;;;;10.95;7.38;;;;;;;13.64;56.12;101821.94;4973768;28;20385;-87
2022/05/07 00:43:15;;;;;;;11.48;6.63;;;;;;;13.43;56.42;101802.91;4973590;28;20030;-86
2022/05/07 00:45:43;;;;;;;8.40;6.55;;;;;;;13.45;56.86;101820.09;4973256;28;20037;-87
2022/05/07 00:48:08;;;;;;;7.65;5.35;;;;;;;13.42;56.72;101828.03;4973667;28;20031;-87
2022/05/07 00:53:18;;;;;;;6.00;5.10;;;;;;;13.43;56.16;101814.13;4987251;28;20058;-87
2022/05/07 00:55:43;;;;;;;6.07;4.13;;;;;;;13.35;56.07;101821.41;4973424;28;20039;-87
2022/05/07 00:58:09;;;;;;;7.88;4.38;;;;;;;13.40;56.09;101829.88;4973446;28;20411;-86
2022/05/07 01:00:34;;;;;;;6.07;4.20;;;;;;;13.34;56.44;101835.31;4973125;28;20039;-87
2022/05/07 01:03:00;;;;;;;6.97;4.53;;;;;;;13.18;56.53;101822.09;4973368;28;20065;-86
2022/05/07 01:05:25;;;;;;;8.10;4.20;;;;;;;13.18;56.60;101827.28;4973429;28;20038;-87
2022/05/07 01:07:51;;;;;;;8.13;4.28;;;;;;;13.11;56.90;101837.97;4973329;28;20042;-86
2022/05/07 01:10:17;;;;;;;8.02;4.35;;;;;;;12.97;57.63;101822.94;4973025;28;20054;-86
2022/05/07 01:12:42;;;;;;;6.32;4.30;;;;;;;12.78;57.29;101803.78;4973206;28;20035;-87
2022/05/07 01:15:08;;;;;;;5.30;4.10;;;;;;;12.76;58.15;101828.97;4989042;28;20031;-87
2022/05/07 01:17:34;;;;;;;6.07;4.20;;;;;;;12.88;57.94;101836.28;4973131;28;20031;-87
2022/05/07 01:19:59;;;;;;;7.18;4.38;;;;;;;12.90;57.71;101842.28;4972887;28;20576;-87
2022/05/07 01:22:25;;;;;;;6.45;4.60;;;;;;;12.91;57.63;101846.56;4974260;28;20034;-87
2022/05/07 01:24:50;;;;;;;9.27;4.32;;;;;;;12.87;57.90;101825.03;4973020;28;20480;-86
2022/05/07 01:27:16;;;;;;;6.47;4.18;;;;;;;12.80;57.88;101820.16;4973806;28;20039;-87
2022/05/07 01:29:41;;;;;;;6.13;4.32;;;;;;;12.83;57.63;101823.47;4972926;28;20031;-87
2022/05/07 01:32:07;;;;;;;6.57;4.40;;;;;;;12.87;57.38;101835.44;4971816;28;20030;-87
2022/05/07 01:34:32;;;;;;;6.50;4.78;;;;;;;12.78;57.94;101835.81;4972710;28;20041;-87
2022/05/07 01:36:58;;;;;;;7.05;4.97;;;;;;;12.58;58.20;101820.13;4972799;28;20031;-87
2022/05/07 01:39:23;;;;;;;6.95;4.47;;;;;;;12.74;57.82;101842.00;4972707;28;20113;-86
2022/05/07 01:41:49;;;;;;;8.82;4.63;;;;;;;12.58;57.74;101830.50;4988816;28;20035;-87
2022/05/07 01:44:14;;;;;;;5.85;4.65;;;;;;;12.64;57.72;101833.72;4972342;28;20038;-86
2022/05/07 01:49:24;;;;;;;9.05;4.47;;;;;;;12.51;57.83;101847.25;4972668;28;20107;-87
2022/05/07 01:51:49;;;;;;;5.85;4.65;;;;;;;12.49;57.68;101843.88;4988497;28;20023;-87
2022/05/07 01:54:15;;;;;;;5.28;4.50;;;;;;;12.48;57.87;101843.00;4972557;28;20538;-87
2022/05/07 01:56:40;;;;;;;6.07;4.10;;;;;;;12.53;57.51;101835.91;4988695;28;20034;-87
2022/05/07 01:59:06;;;;;;;8.18;4.00;;;;;;;12.43;57.88;101839.75;4972079;28;20031;-87
2022/05/07 02:01:31;;;;;;;7.13;4.55;;;;;;;12.38;58.11;101825.22;4972111;28;21087;-87
2022/05/07 02:03:57;;;;;;;8.65;4.40;;;;;;;12.44;58.02;101830.19;4972172;28;20030;-87
2022/05/07 02:06:22;;;;;;;6.88;4.30;;;;;;;12.38;57.79;101833.84;4972112;28;20042;-87
2022/05/07 02:08:48;;;;;;;6.60;4.45;;;;;;;12.39;57.82;101825.19;4972155;28;20416;-86
2022/05/07 02:11:13;;;;;;;7.90;4.50;;;;;;;12.26;57.91;101829.97;4971595;28;20524;-87
2022/05/07 02:13:39;;;;;;;5.68;4.38;;;;;;;12.25;57.91;101814.47;4972637;28;20062;-87
2022/05/07 02:16:04;;;;;;;7.25;4.65;;;;;;;12.16;58.12;101815.66;4971984;28;20059;-87
2022/05/07 02:18:30;;;;;;;8.82;4.78;;;;;;;12.26;58.23;101836.91;4988398;28;20451;-87
2022/05/07 02:20:56;;;;;;;7.28;4.95;;;;;;;12.25;58.02;101830.88;4971639;28;20034;-86
2022/05/07 02:23:22;;;;;;;6.80;4.93;;;;;;;12.24;58.36;101823.16;4971964;28;20066;-87
2022/05/07 02:25:47;;;;;;;7.10;4.75;;;;;;;12.19;58.21;101823.34;4971816;28;20105;-87
2022/05/07 02:28:14;;;;;;;9.75;5.00;;;;;;;12.09;58.27;101829.72;4987660;28;20034;-86
2022/05/07 02:30:40;;;;;;;9.13;5.55;;;;;;;11.99;58.66;101824.03;4971812;28;20110;-86
2022/05/07 02:33:05;;;;;;;10.40;5.40;;;;;;;11.78;59.62;101817.81;4971342;28;20118;-86
2022/05/07 02:35:31;;;;;;;8.07;5.10;;;;;;;11.74;59.50;101823.19;4971735;28;20038;-87
2022/05/07 02:37:56;;;;;;;7.60;4.60;;;;;;;11.67;59.90;101806.16;4987861;28;20022;-87
2022/05/07 02:40:22;;;;;;;6.57;4.70;;;;;;;11.67;59.75;101822.53;4987809;28;20386;-87
2022/05/07 02:42:48;;;;;;;8.48;4.50;;;;;;;11.63;59.78;101815.78;4970894;28;20420;-87
2022/05/07 02:45:14;;;;;;;6.90;4.50;;;;;;;11.63;59.99;101831.34;4986872;28;20085;-87
2022/05/07 02:47:40;;;;;;;6.53;4.10;;;;;;;11.56;60.08;101835.03;4971478;28;20408;-87
2022/05/07 02:50:07;;;;;;;6.47;4.43;;;;;;;11.45;59.80;101827.63;4971721;28;20039;-87
2022/05/07 02:52:33;;;;;;;7.63;4.40;;;;;;;11.39;59.93;101812.25;4971072;28;20078;-87
2022/05/07 02:55:06;;;;;;;6.18;4.07;;;;;;;11.51;59.75;101836.94;4971090;28;20394;-87
2022/05/07 02:57:31;;;;;;;7.60;4.28;;;;;;;11.51;59.64;101836.94;4971064;28;20027;-86
2022/05/07 02:59:57;;;;;;;9.60;4.50;;;;;;;11.40;59.40;101839.88;4955165;28;20105;-86
2022/05/07 03:02:23;;;;;;;6.43;4.18;;;;;;;11.31;60.16;101845.38;4971301;28;20051;-87
2022/05/07 03:04:49;;;;;;;7.80;4.25;;;;;;;11.13;59.78;101810.53;4971236;28;20030;-87
2022/05/07 03:07:15;;;;;;;6.60;4.10;;;;;;;11.19;60.09;101830.19;4971194;28;20035;-86
2022/05/07 03:09:40;;;;;;;7.10;4.32;;;;;;;11.22;60.11;101845.66;4956155;28;20027;-87
2022/05/07 03:12:06;;;;;;;7.63;4.05;;;;;;;11.13;60.18;101843.38;4973906;28;20030;-87
2022/05/07 03:14:32;;;;;;;5.70;4.30;;;;;;;11.13;59.83;101846.81;4958126;28;20045;-86
2022/05/07 03:16:57;;;;;;;6.60;4.32;;;;;;;11.05;60.51;101853.13;4974194;28;20527;-86
2022/05/07 03:19:23;;;;;;;6.25;4.10;;;;;;;11.12;60.46;101855.47;4974309;28;20026;-86
2022/05/07 03:21:48;;;;;;;7.43;4.25;;;;;;;11.10;60.32;101857.25;4974378;28;20040;-86
2022/05/07 03:24:14;;;;;;;6.65;4.13;;;;;;;11.05;60.36;101847.94;4974524;28;20488;-86
2022/05/07 03:26:39;;;;;;;5.65;4.10;;;;;;;11.04;59.92;101846.25;4973569;28;20030;-87
2022/05/07 03:29:05;;;;;;;8.40;4.20;;;;;;;11.14;59.93;101874.41;4974136;28;20109;-87
2022/05/07 03:31:30;;;;;;;5.57;3.88;;;;;;;11.08;59.81;101859.03;4974157;28;20066;-87
2022/05/07 03:33:56;;;;;;;6.18;4.57;;;;;;;10.89;59.89;101824.25;4973866;28;20030;-87
2022/05/07 03:36:22;;;;;;;7.53;4.22;;;;;;;11.04;59.87;101846.25;4973815;28;20022;-87
2022/05/07 03:38:47;;;;;;;5.88;4.10;;;;;;;11.07;60.34;101862.53;4973738;28;20497;-87
2022/05/07 03:41:14;;;;;;;8.60;4.65;;;;;;;11.15;60.81;101876.09;4957572;28;20037;-87
2022/05/07 03:43:40;;;;;;;7.35;4.35;;;;;;;11.18;60.34;101883.75;4973861;28;20029;-86
2022/05/07 03:46:06;;;;;;;9.55;4.75;;;;;;;11.17;60.19;101881.22;4973960;28;20031;-86
2022/05/07 03:48:31;;;;;;;8.07;4.57;;;;;;;11.16;60.23;101882.13;4973980;28;20026;-87
2022/05/07 03:50:57;;;;;;;8.77;4.53;;;;;;;11.05;60.16;101866.91;4973897;28;20085;-87
2022/05/07 03:53:31;;;;;;;13.13;4.43;;;;;;;11.13;60.08;101883.06;4973920;28;20034;-87
2022/05/07 03:55:57;;;;;;;7.60;4.45;;;;;;;11.22;60.03;101881.94;4991792;28;20041;-86
2022/05/07 03:58:22;;;;;;;6.75;4.55;;;;;;;11.19;59.87;101882.84;4993916;28;20030;-86
2022/05/07 04:00:48;;;;;;;7.35;4.30;;;;;;;11.09;60.05;101885.78;4977519;28;20030;-87
2022/05/07 04:03:13;;;;;;;11.15;4.88;;;;;;;10.94;60.41;101881.09;4993945;28;20026;-87
2022/05/07 04:05:39;;;;;;;8.90;4.65;;;;;;;11.05;60.32;101900.56;4977928;28;20556;-86
2022/05/07 04:08:05;;;;;;;5.93;4.13;;;;;;;11.06;60.38;101894.50;4993675;28;20030;-87
2022/05/07 04:10:30;;;;;;;7.45;4.38;;;;;;;10.88;60.60;101879.53;4977115;28;20547;-87
2022/05/07 04:12:56;;;;;;;8.48;4.38;;;;;;;11.07;60.32;101900.53;4977433;28;20500;-87
2022/05/07 04:15:21;;;;;;;7.47;4.72;;;;;;;11.00;60.21;101886.91;4977185;28;20067;-87
2022/05/07 04:17:47;;;;;;;7.72;4.20;;;;;;;11.09;60.19;101911.69;4977170;28;20088;-87
2022/05/07 04:20:13;;;;;;;9.93;4.32;;;;;;;11.00;60.66;101886.06;4977117;28;20026;-87
2022/05/07 04:22:38;;;;;;;5.18;4.35;;;;;;;11.18;60.49;101921.75;4977365;28;20038;-86
2022/05/07 04:25:08;;;;;;;7.97;4.63;;;;;;;11.19;59.97;101907.91;4993120;28;20031;-87
2022/05/07 04:27:34;;;;;;;10.15;4.78;;;;;;;11.27;60.32;101928.41;4977369;28;20026;-87
2022/05/07 04:29:59;;;;;;;7.93;4.10;;;;;;;11.29;60.18;101924.00;4993537;28;20523;-86
2022/05/07 04:32:25;;;;;;;7.97;4.78;;;;;;;11.25;60.52;101925.03;4993300;28;20411;-87
2022/05/07 04:34:51;;;;;;;7.43;5.35;;;;;;;11.15;60.30;101909.75;4977229;28;20030;-86
2022/05/07 04:37:16;;;;;;;9.00;5.38;;;;;;;11.30;60.32;101944.69;4976806;28;20038;-86
2022/05/07 04:39:42;;;;;;;8.23;5.10;;;;;;;11.32;60.24;101939.47;4976798;28;20031;-86
2022/05/07 04:42:08;;;;;;;8.45;5.13;;;;;;;11.31;60.37;101927.44;4960661;28;20034;-86
2022/05/07 04:44:33;;;;;;;11.98;5.40;;;;;;;11.41;60.03;101934.88;4976844;28;20023;-86
2022/05/07 04:46:59;;;;;;;7.57;5.10;;;;;;;11.51;60.31;101935.41;4976750;28;20026;-86
2022/05/07 04:49:24;;;;;;;8.00;5.30;;;;;;;11.63;59.25;101942.78;4977020;28;20041;-86
2022/05/07 04:51:52;;;;;;;11.20;5.55;;;;;;;11.66;58.70;101942.69;4976351;28;20503;-87
2022/05/07 04:54:19;;;;;;;10.63;6.90;;;;;;;11.63;58.63;101926.41;4977197;28;20026;-86
2022/05/07 04:56:48;;;;;;;12.05;6.78;;;;;;;11.55;58.84;101911.09;4976871;28;20049;-86
2022/05/07 04:59:14;;;;;;;11.80;7.05;;;;;;;11.75;58.79;101944.97;4976640;28;20027;-86
2022/05/07 05:01:40;;;;;;;11.57;6.75;;;;;;;11.67;59.16;101921.03;4976557;28;20072;-86
2022/05/07 05:04:05;;;;;;;10.32;6.88;;;;;;;11.88;59.24;101937.66;4976691;28;20381;-86
2022/05/07 05:06:31;;;;;;;9.82;7.05;;;;;;;11.97;59.14;101939.09;4975326;28;20057;-87
2022/05/07 05:08:56;;;;;;;11.35;7.20;;;;;;;12.06;58.64;101950.00;4960406;28;20031;-87
2022/05/07 05:11:22;;;;;;;10.32;6.32;;;;;;;12.15;59.17;101941.06;4976342;28;20504;-86
2022/05/07 05:13:47;;;;;;;8.88;5.80;;;;;;;12.24;58.26;101942.50;4976287;28;20034;-86
2022/05/07 05:16:13;;;;;;;9.50;5.57;;;;;;;12.24;58.29;101938.16;4976324;28;20026;-87
2022/05/07 05:18:38;;;;;;;7.97;5.38;;;;;;;12.49;57.38;101947.69;4976194;28;20440;-87
2022/05/07 05:21:04;;;;;;;11.82;5.63;;;;;;;12.44;57.14;101932.28;4976042;28;20084;-86
2022/05/07 05:23:30;;;;;;;10.23;5.63;;;;;;;12.52;56.73;101934.59;4976252;28;20030;-86
2022/05/07 05:25:55;;;;;;;10.38;5.78;;;;;;;12.45;56.02;101904.56;4959768;28;20040;-86
2022/05/07 05:28:21;;;;;;;7.93;5.70;;;;;;;12.68;55.88;101932.28;4976080;28;20030;-86
2022/05/07 05:30:51;;;;;;;10.10;6.05;;;;;;;12.60;55.78;101946.41;4993729;28;20029;-86
2022/05/07 05:33:17;;;;;;;8.55;6.05;;;;;;;12.65;55.96;101951.41;4992352;28;20029;-85
2022/05/07 05:35:43;;;;;;;7.97;6.18;;;;;;;12.34;56.97;101949.91;4991899;28;20026;-87
2022/05/07 05:38:08;;;;;;;10.35;5.93;;;;;;;12.46;56.90;101950.38;4976114;28;20535;-86
2022/05/07 05:40:34;;;;;;;7.85;5.70;;;;;;;12.30;57.03;101931.94;4975968;28;20034;-86
2022/05/07 05:43:00;;;;;;;11.43;6.13;;;;;;;12.59;56.83;101955.09;4991846;28;20045;-86
2022/05/07 05:45:27;;;;;;;8.48;5.93;;;;;;;12.63;56.19;101946.28;4975922;28;20030;-86
2022/05/07 05:47:53;;;;;;;9.77;5.72;;;;;;;12.77;55.70;101957.91;4976211;28;20022;-86
2022/05/07 05:50:18;;;;;;;8.43;5.63;;;;;;;12.83;55.41;101953.34;4991336;28;20037;-86
2022/05/07 05:52:44;;;;;;;8.48;5.78;;;;;;;12.85;55.60;101951.53;4992751;28;20038;-85
2022/05/07 05:55:09;;;;;;;9.13;5.80;;;;;;;12.87;55.39;101939.31;4975523;28;20039;-86
2022/05/07 05:57:35;;;;;;;8.85;5.68;;;;;;;12.97;55.21;101955.41;4991526;28;20042;-86
2022/05/07 06:00:00;;;;;;;8.63;5.82;;;;;;;12.95;54.72;101948.56;4975659;28;20038;-86
2022/05/07 06:02:26;;;;;;;7.55;5.65;;;;;;;13.11;54.78;101949.69;4975590;28;20023;-86
2022/05/07 06:04:52;;;;;;;9.85;5.88;;;;;;;13.26;53.71;101974.25;4974847;28;20036;-85
2022/05/07 06:07:17;;;;;;;7.57;5.90;;;;;;;13.09;53.66;101952.34;4975257;28;20405;-86
2022/05/07 06:09:43;;;;;;;7.82;5.63;;;;;;;13.38;54.09;101966.84;4975162;28;20069;-86
2022/05/07 06:12:09;;;;;;;8.65;5.70;;;;;;;13.65;53.43;101971.84;4975474;28;20023;-86
2022/05/07 06:14:34;;;;;;;9.98;5.90;;;;;;;13.71;52.80;101951.66;4991570;28;20157;-85
2022/05/07 06:17:00;;;;;;;12.50;6.28;;;;;;;13.87;52.42;101964.03;4975187;28;20030;-86
2022/05/07 06:19:26;;;;;;;7.85;5.63;;;;;;;14.01;51.25;101967.75;4974463;28;20093;-85
2022/05/07 06:21:51;;;;;;;10.95;5.97;;;;;;;14.17;51.11;101982.72;4990893;28;20081;-86
2022/05/07 06:29:45;;;;;;;8.50;5.80;;;;;;;13.88;51.87;101976.97;4977349;28;20088;-86
2022/05/07 06:32:11;;;;;;;8.45;5.60;;;;;;;13.87;51.74;101961.44;4958727;28;20030;-85
2022/05/07 06:34:36;;;;;;;10.15;6.57;;;;;;;13.84;52.42;101964.97;4974651;28;20030;-88
2022/05/07 06:37:02;;;;;;;7.80;6.13;;;;;;;14.00;52.19;101962.59;4974909;28;20041;-87
2022/05/07 06:39:27;;;;;;;11.23;6.10;;;;;;;14.19;51.69;101957.47;4974443;28;20030;-86
2022/05/07 06:41:53;;;;;;;9.32;6.45;;;;;;;14.37;51.03;101959.28;4974695;28;20045;-85
2022/05/07 06:44:18;;;;;;;12.05;6.10;;;;;;;14.46;50.82;101976.28;4974852;28;20030;-86
2022/05/07 06:46:44;;;;;;;8.07;5.60;;;;;;;14.71;50.70;101970.84;4974690;28;20030;-85
2022/05/07 06:49:10;;;;;;;8.63;5.78;;;;;;;14.75;50.61;101962.81;4974441;28;20468;-86
2022/05/07 06:51:36;;;;;;;8.18;5.55;;;;;;;14.96;49.70;101958.41;4974871;28;20409;-86
2022/05/07 06:54:01;;;;;;;7.70;5.82;;;;;;;15.15;49.50;101956.63;4974065;28;20026;-86
2022/05/07 06:56:26;;;;;;;9.07;5.55;;;;;;;15.21;49.73;101963.28;4974397;28;20093;-86
2022/05/07 06:58:52;;;;;;;9.13;6.63;;;;;;;15.12;49.01;101940.25;4990674;28;20070;-86
2022/05/07 07:01:18;;;;;;;8.45;6.30;;;;;;;15.12;49.27;101943.72;4974370;28;20034;-85
2022/05/07 07:03:43;;;;;;;8.88;5.88;;;;;;;15.17;49.56;101944.34;4991232;28;20456;-87
2022/05/07 07:06:09;;;;;;;10.45;6.15;;;;;;;15.38;49.66;101954.69;4991813;28;20525;-86
2022/05/07 07:08:34;;;;;;;11.93;5.75;;;;;;;15.38;48.83;101924.22;4974385;28;20030;-86
2022/05/07 07:11:00;;;;;;;8.30;5.88;;;;;;;15.70;47.87;101951.38;4973957;28;20046;-86
2022/05/07 07:13:26;;;;;;;10.27;5.95;;;;;;;15.74;48.25;101965.13;4974196;28;20034;-86
2022/05/07 07:15:51;;;;;;;8.15;5.60;;;;;;;15.82;47.97;101943.84;4973982;28;20030;-87
2022/05/07 07:18:17;;;;;;;8.75;5.18;;;;;;;16.13;46.98;101957.06;4990025;28;20518;-85
2022/05/07 07:20:43;;;;;;;8.40;5.72;;;;;;;16.10;46.26;101954.59;4974192;28;20484;-86
2022/05/07 07:23:11;;;;;;;7.70;4.95;;;;;;;16.13;46.29;101954.47;4990297;28;20034;-86
2022/05/07 07:25:41;;;;;;;8.10;5.10;;;;;;;16.10;46.42;101928.50;4974384;28;20081;-86
2022/05/07 07:28:07;;;;;;;8.70;5.30;;;;;;;16.41;45.68;101946.03;4957814;28;20030;-86
2022/05/07 07:30:33;;;;;;;7.32;5.32;;;;;;;16.21;46.22;101947.06;4989375;28;20030;-86
2022/05/07 07:32:59;;;;;;;7.45;4.72;;;;;;;16.38;45.86;101933.13;4973689;28;20163;-87
2022/05/07 07:35:25;;;;;;;10.02;4.82;;;;;;;16.48;45.11;101930.88;4990149;28;20030;-86
2022/05/07 07:37:50;;;;;;;6.38;4.68;;;;;;;16.74;44.96;101935.59;4973852;28;20049;-87
2022/05/07 07:40:16;;;;;;;8.35;4.95;;;;;;;17.01;44.46;101937.63;4974224;28;20038;-86
2022/05/07 07:42:42;;;;;;;8.40;4.93;;;;;;;17.02;44.41;101931.47;4974218;28;20065;-86
2022/05/07 07:48:03;;;;;;;7.57;4.65;;;;;;;17.38;43.70;101946.88;4989926;28;20093;-87
2022/05/07 07:50:34;;;;;;;6.90;4.78;;;;;;;17.43;43.61;101944.84;4973799;28;20045;-86
2022/05/07 07:53:02;;;;;;;6.30;4.32;;;;;;;17.51;43.88;101939.19;4973538;28;20040;-86
2022/05/07 07:55:27;;;;;;;5.95;4.60;;;;;;;17.65;42.77;101949.69;4973981;28;20034;-86
2022/05/07 07:57:57;;;;;;;7.55;4.78;;;;;;;17.65;41.72;101926.97;4957465;28;20033;-86
2022/05/07 08:00:23;;;;;;;5.68;4.45;;;;;;;17.71;42.28;101949.38;4973525;28;20030;-86
2022/05/07 08:02:55;;;;;;;6.90;4.53;;;;;;;17.65;42.58;101949.69;4973440;28;20084;-86
2022/05/07 08:05:42;;;;;;;8.15;4.57;;;;;;;17.66;43.09;101938.28;4989982;28;20436;-86
2022/05/07 08:13:37;;;;;;;9.88;4.68;;;;;;;17.83;42.63;101922.50;4975942;28;20109;-85
2022/05/07 08:16:03;;;;;;;8.98;4.60;;;;;;;17.98;42.22;101936.44;4989570;28;20137;-87
2022/05/07 08:18:29;;;;;;;6.88;4.20;;;;;;;18.17;42.14;101944.88;4973248;28;20042;-85
2022/05/07 08:20:56;;;;;;;5.93;4.30;;;;;;;18.22;41.99;101934.97;4973641;28;20031;-86
2022/05/07 08:23:21;;;;;;;7.07;4.05;;;;;;;18.40;41.69;101938.28;4957560;28;20069;-85
2022/05/07 08:25:47;;;;;;;6.10;3.70;;;;;;;18.41;40.68;101934.72;4973195;28;20109;-85
2022/05/07 08:28:12;;;;;;;7.45;4.03;;;;;;;18.44;40.74;101939.75;4973413;28;20116;-86
2022/05/07 08:30:39;;;;;;;5.63;3.58;;;;;;;18.57;41.24;101929.34;4989331;28;20033;-86
2022/05/07 08:33:05;;;;;;;8.30;4.50;;;;;;;18.59;41.39;101932.75;4989470;28;20034;-86
2022/05/07 08:35:31;;;;;;;6.57;4.00;;;;;;;18.58;41.40;101916.19;4989586;28;20068;-87
2022/05/07 08:37:56;;;;;;;6.57;4.15;;;;;;;18.88;40.99;101934.44;4973401;28;20038;-87
2022/05/07 08:40:22;;;;;;;7.18;3.35;;;;;;;19.03;39.69;101940.47;4973458;28;20420;-86
2022/05/07 08:42:47;;;;;;;5.20;3.35;;;;;;;19.09;39.51;101926.13;4976594;28;20034;-86
2022/05/07 08:45:13;;;;;;;10.85;3.40;;;;;;;19.20;38.58;101927.13;4976544;28;20080;-87
2022/05/07 08:47:39;;;;;;;7.05;3.50;;;;;;;19.45;38.15;101941.25;4976715;28;20109;-87
2022/05/07 08:50:09;;;;;;;5.72;3.10;;;;;;;19.78;38.13;101940.84;4976847;28;20031;-87
2022/05/07 08:52:42;;;;;;;5.82;3.45;;;;;;;20.11;37.04;101931.63;4992948;28;20089;-87
2022/05/07 08:55:10;;;;;;;8.23;3.28;;;;;;;20.37;36.96;101916.69;4976848;28;20408;-86
2022/05/07 08:57:36;;;;;;;7.85;3.75;;;;;;;20.39;35.60;101920.06;4976391;28;20058;-86
2022/05/07 09:00:02;;;;;;;5.88;3.47;;;;;;;20.57;34.25;101917.00;4976422;28;20030;-86
2022/05/07 09:02:28;;;;;;;6.80;3.58;;;;;;;20.74;34.67;101928.94;4976508;28;20492;-86
2022/05/07 09:04:57;;;;;;;4.85;3.28;;;;;;;20.84;33.62;101927.38;4976226;28;20038;-87
2022/05/07 09:07:22;;;;;;;6.05;3.38;;;;;;;21.16;34.53;101929.47;4960276;28;20503;-86
2022/05/07 09:09:48;;;;;;;6.30;3.50;;;;;;;21.09;32.81;101921.16;4993601;28;20038;-86
2022/05/07 09:12:28;;;;;;;6.68;3.78;;;;;;;21.29;32.80;101917.09;4976306;28;20554;-86
2022/05/07 09:14:59;;;;;;;8.35;3.65;;;;;;;21.53;30.89;101929.38;4975791;28;20031;-86
2022/05/07 09:17:25;;;;;;;6.75;3.45;;;;;;;21.62;31.38;101918.16;4960160;28;20124;-86
2022/05/07 09:19:50;;;;;;;7.63;3.30;;;;;;;21.65;31.54;101913.53;4976172;28;20679;-87
2022/05/07 09:22:16;;;;;;;7.25;3.40;;;;;;;21.97;30.85;101924.25;4976548;28;20101;-86
2022/05/07 09:24:51;;;;;;;5.78;3.42;;;;;;;22.08;30.79;101912.91;4976095;28;20034;-86
2022/05/07 09:27:17;;;;;;;9.27;3.47;;;;;;;22.20;29.60;101906.69;4976219;28;20101;-87
2022/05/07 09:29:42;;;;;;;7.85;3.72;;;;;;;22.25;30.75;101901.06;4976140;28;20033;-86
2022/05/07 09:32:09;;;;;;;5.40;3.25;;;;;;;22.41;30.73;101906.78;4975913;28;20031;-86
2022/05/07 09:37:38;;;;;;;6.68;3.40;;;;;;;22.19;30.03;101883.91;4978160;28;20069;-87
2022/05/07 09:40:05;;;;;;;7.22;3.30;;;;;;;22.34;30.06;101900.34;4975914;28;20057;-86
2022/05/07 09:42:30;;;;;;;6.40;3.33;;;;;;;22.30;29.92;101883.06;4975678;28;20408;-86
2022/05/07 09:44:56;;;;;;;4.65;3.55;;;;;;;22.42;29.52;101889.19;4991978;28;20492;-86
2022/05/07 09:47:21;;;;;;;7.50;3.60;;;;;;;22.60;29.46;101882.44;4975963;28;20034;-86
2022/05/07 09:52:31;;;;;;;5.00;2.92;;;;;;;22.57;28.05;101880.91;4977534;28;20041;-86
2022/05/07 09:57:41;;;;;;;6.15;3.20;;;;;;;22.63;26.49;101873.47;4977631;28;20041;-86
2022/05/07 10:00:10;;;;;;;9.10;3.60;;;;;;;22.51;27.36;101857.66;4975840;28;20443;-86
2022/05/07 10:03:08;;;;;;;4.75;3.28;;;;;;;22.78;26.83;101862.50;4959563;28;20030;-87
2022/05/07 10:05:52;;;;;;;8.98;3.13;;;;;;;23.14;25.87;101860.50;4975453;28;20022;-86
2022/05/07 10:08:28;;;;;;;4.05;3.20;;;;;;;23.48;26.18;101863.81;4975447;28;20027;-86
2022/05/07 10:10:53;;;;;;;8.57;3.40;;;;;;;23.54;26.47;101844.81;4974865;28;20113;-86
2022/05/07 10:13:19;;;;;;;4.38;3.00;;;;;;;23.62;26.02;101841.56;4975292;28;20100;-86
2022/05/07 10:15:45;;;;;;;6.85;3.00;;;;;;;23.67;25.66;101850.75;4975218;28;20022;-86
2022/05/07 10:18:14;;;;;;;5.70;3.00;;;;;;;23.96;24.32;101850.91;4975095;28;20030;-87
2022/05/07 10:20:40;;;;;;;5.35;3.30;;;;;;;24.16;24.02;101840.41;4975664;28;20061;-86
2022/05/07 10:23:08;;;;;;;7.18;3.60;;;;;;;24.13;24.40;101836.22;4992218;28;20498;-86
2022/05/07 10:25:34;;;;;;;9.88;3.33;;;;;;;24.19;24.13;101842.81;4958757;28;20054;-87
2022/05/07 10:28:15;;;;;;;5.28;3.20;;;;;;;24.15;24.26;101834.28;4974900;28;20400;-87
2022/05/07 10:30:47;;;;;;;4.50;3.08;;;;;;;24.28;23.73;101840.16;4974625;28;20076;-86
2022/05/07 10:33:12;;;;;;;;;;;;;;;24.23;23.37;101837.09;4975036;28;20385;-86
2022/05/07 10:35:53;;;;;;;8.98;3.53;;;;;;;24.05;23.80;101833.41;4991056;28;19964;-86
2022/05/07 10:38:38;;;;;;;6.60;3.30;;;;;;;23.95;23.76;101837.81;4974888;28;20026;-87
2022/05/07 10:41:14;;;;;;;6.53;3.30;;;;;;;24.01;23.31;101837.31;4975087;28;20030;-86
2022/05/07 10:43:42;;;;;;;6.38;3.30;;;;;;;24.05;23.58;101822.84;4992137;28;20065;-85
2022/05/07 10:46:14;;;;;;;6.60;3.75;;;;;;;24.11;24.22;101835.53;4975129;28;20033;-86
2022/05/07 10:48:50;;;;;;;10.30;3.60;;;;;;;23.97;23.37;101814.72;4975044;28;20026;-86
2022/05/07 10:51:50;;;;;;;7.72;3.50;;;;;;;24.06;23.65;101821.03;4991111;28;20045;-87
2022/05/07 10:54:21;;;;;;;10.93;3.30;;;;;;;23.83;23.94;101807.19;4956156;28;20034;-85
2022/05/07 10:57:12;;;;;;;4.93;3.50;;;;;;;23.85;23.79;101823.72;4974461;28;20405;-86
2022/05/07 10:59:37;;;;;;;8.13;3.80;;;;;;;23.75;23.85;101806.03;4990480;28;20027;-87
2022/05/07 11:02:09;;;;;;;6.85;3.47;;;;;;;23.62;23.76;101804.56;4990840;28;20030;-87
2022/05/07 11:04:44;;;;;;;5.93;3.50;;;;;;;23.69;23.97;101814.47;4989787;28;20038;-86
2022/05/07 11:07:10;;;;;;;6.82;3.53;;;;;;;23.82;23.72;101789.66;4990777;28;20034;-86
2022/05/07 11:09:35;;;;;;;6.25;3.10;;;;;;;24.00;21.92;101793.34;4973763;28;20026;-86
2022/05/07 11:12:01;;;;;;;7.00;3.53;;;;;;;24.11;22.64;101808.25;4974148;28;20038;-86
2022/05/07 11:14:30;;;;;;;4.63;3.22;;;;;;;24.23;23.36;101797.44;4974278;28;20030;-86
2022/05/07 11:16:56;;;;;;;8.80;3.25;;;;;;;24.20;23.87;101795.06;4990415;28;20133;-86
2022/05/07 11:19:32;;;;;;;4.55;3.45;;;;;;;24.03;24.19;101791.25;4974286;28;20041;-86
2022/05/07 11:21:59;;;;;;;8.98;3.40;;;;;;;24.12;24.23;101792.25;4974366;28;20034;-86
2022/05/07 11:24:30;;;;;;;7.20;3.65;;;;;;;23.92;23.85;101779.94;4974021;28;20034;-86
2022/05/07 11:27:02;;;;;;;6.82;3.55;;;;;;;24.10;23.68;101794.22;4991598;28;20112;-86
2022/05/07 11:29:28;;;;;;;5.40;3.60;;;;;;;24.05;24.00;101788.47;4974624;28;20027;-86
2022/05/07 11:31:57;;;;;;;4.88;3.20;;;;;;;24.11;23.95;101780.00;4973678;28;20034;-86
2022/05/07 11:34:31;;;;;;;6.68;3.50;;;;;;;24.26;24.26;101778.63;4990296;28;20519;-86
2022/05/07 11:36:57;;;;;;;7.43;3.72;;;;;;;24.15;23.89;101781.41;4990053;28;20023;-86
2022/05/07 11:39:23;;;;;;;5.10;3.20;;;;;;;24.23;23.73;101778.91;4973340;28;20034;-86
2022/05/07 11:41:57;;;;;;;5.75;3.70;;;;;;;24.31;23.87;101781.75;4974473;28;20029;-86
2022/05/07 11:47:22;;;;;;;5.85;3.30;;;;;;;24.34;23.66;101764.78;4976626;28;20408;-86
2022/05/07 11:50:06;;;;;;;6.38;2.97;;;;;;;24.50;22.65;101790.69;4973991;28;20037;-86
2022/05/07 11:52:32;;;;;;;6.07;3.40;;;;;;;24.36;23.05;101785.78;4974319;28;20030;-86
2022/05/07 11:55:03;;;;;;;6.88;3.42;;;;;;;24.10;23.56;101772.22;4974175;28;20041;-86
2022/05/07 11:57:32;;;;;;;5.93;3.38;;;;;;;24.18;23.71;101782.94;4973944;28;20089;-86